createdAt,value
2023-04-15T00:00:01.164Z,1.80
2023-04-15T00:01:01.141Z,1.80
2023-04-15T00:02:01.186Z,2.10
2023-04-15T00:03:01.227Z,2.10
2023-04-15T00:04:01.141Z,1.80
2023-04-15T00:05:01.085Z,1.80
2023-04-15T00:06:01.060Z,1.90
2023-04-15T00:07:01.058Z,1.90
2023-04-15T00:08:01.045Z,2.00
2023-04-15T00:09:01.466Z,2.20
2023-04-15T00:10:01.030Z,2.10
2023-04-15T00:11:00.985Z,2.00
2023-04-15T00:12:01.030Z,1.80
2023-04-15T00:13:00.991Z,2.00
2023-04-15T00:14:00.963Z,1.80
2023-04-15T00:15:00.963Z,1.70
2023-04-15T00:16:00.958Z,1.90
2023-04-15T00:17:00.950Z,1.50
2023-04-15T00:18:00.950Z,2.00
2023-04-15T00:19:01.067Z,1.90
2023-04-15T00:20:00.888Z,1.90
2023-04-15T00:21:00.883Z,1.70
2023-04-15T00:22:00.888Z,1.70
2023-04-15T00:23:00.892Z,1.60
2023-04-15T00:24:00.815Z,1.80
2023-04-15T00:25:00.822Z,2.10
2023-04-15T00:26:00.835Z,2.10
2023-04-15T00:27:00.788Z,2.40
2023-04-15T00:28:00.791Z,2.00
2023-04-15T00:29:00.947Z,1.90
2023-04-15T00:30:00.747Z,1.70
2023-04-15T00:31:00.803Z,1.80
2023-04-15T00:32:00.743Z,2.10
2023-04-15T00:33:00.775Z,2.10
2023-04-15T00:34:00.706Z,2.00
2023-04-15T00:35:00.697Z,1.90
2023-04-15T00:36:00.666Z,1.70
2023-04-15T00:37:00.669Z,1.80
2023-04-15T00:38:00.685Z,2.10
2023-04-15T00:39:00.864Z,2.00
2023-04-15T00:40:00.614Z,2.00
2023-04-15T00:41:00.630Z,2.00
2023-04-15T00:42:00.607Z,2.10
2023-04-15T00:43:00.607Z,1.90
2023-04-15T00:44:00.583Z,2.20
2023-04-15T00:45:00.550Z,2.20
2023-04-15T00:46:00.595Z,2.00
2023-04-15T00:47:00.552Z,2.30
2023-04-15T00:48:00.667Z,1.90
2023-04-15T00:49:00.793Z,2.40
2023-04-15T00:50:00.497Z,2.00
2023-04-15T00:51:00.477Z,1.90
2023-04-15T00:52:00.499Z,2.10
2023-04-15T00:53:00.467Z,2.00
2023-04-15T00:54:00.447Z,2.10
2023-04-15T00:55:00.454Z,2.20
2023-04-15T00:56:00.445Z,2.30
2023-04-15T00:57:00.405Z,2.10
2023-04-15T00:58:00.416Z,2.30
2023-04-15T00:59:00.560Z,2.10
2023-04-15T01:00:00.378Z,1.90
2023-04-15T01:01:00.393Z,2.10
2023-04-15T01:02:00.455Z,2.00
2023-04-15T01:03:00.778Z,2.30
2023-04-15T01:04:00.491Z,2.30
2023-04-15T01:05:00.303Z,2.10
2023-04-15T01:06:01.560Z,2.30
2023-04-15T01:07:00.262Z,2.00
2023-04-15T01:08:00.294Z,2.40
2023-04-15T01:09:00.532Z,2.00
2023-04-15T01:10:00.290Z,2.00
2023-04-15T01:11:00.236Z,2.00
2023-04-15T01:12:00.231Z,2.40
2023-04-15T01:13:00.188Z,2.10
2023-04-15T01:14:00.187Z,2.00
2023-04-15T01:15:00.259Z,2.20
2023-04-15T01:16:00.226Z,2.60
2023-04-15T01:17:00.191Z,2.10
2023-04-15T01:18:00.377Z,2.00
2023-04-15T01:19:00.450Z,2.40
2023-04-15T01:20:00.173Z,2.10
2023-04-15T01:21:00.129Z,2.30
2023-04-15T01:22:00.128Z,2.20
2023-04-15T01:23:00.108Z,2.40
2023-04-15T01:24:00.077Z,2.60
2023-04-15T01:25:00.040Z,2.10
2023-04-15T01:26:00.034Z,2.30
2023-04-15T01:27:00.032Z,2.30
2023-04-15T01:27:59.994Z,2.40
2023-04-15T01:29:00.212Z,2.50
2023-04-15T01:30:00.012Z,2.50
2023-04-15T01:30:59.961Z,2.10
2023-04-15T01:31:59.978Z,2.50
2023-04-15T01:32:59.968Z,2.30
2023-04-15T01:33:59.931Z,2.00
2023-04-15T01:34:59.909Z,2.30
2023-04-15T01:35:59.897Z,2.60
2023-04-15T01:36:59.879Z,2.50
2023-04-15T01:37:59.898Z,2.40
2023-04-15T01:39:00.152Z,2.20
2023-04-15T01:39:59.868Z,2.50
2023-04-15T01:40:59.837Z,2.40
2023-04-15T01:41:59.818Z,2.30
2023-04-15T01:42:59.818Z,2.60
2023-04-15T01:43:59.863Z,2.40
2023-04-15T01:44:59.777Z,2.40
2023-04-15T01:45:59.763Z,2.50
2023-04-15T01:46:59.805Z,2.50
2023-04-15T01:47:59.831Z,2.80
2023-04-15T01:48:59.929Z,2.60
2023-04-15T01:49:59.772Z,2.30
2023-04-15T01:50:59.700Z,2.40
2023-04-15T01:51:59.689Z,2.60
2023-04-15T01:52:59.670Z,2.50
2023-04-15T01:53:59.676Z,2.40
2023-04-15T01:54:59.692Z,2.70
2023-04-15T01:55:59.636Z,2.10
2023-04-15T01:56:59.622Z,2.30
2023-04-15T01:57:59.643Z,2.10
2023-04-15T01:58:59.790Z,2.20
2023-04-15T01:59:59.623Z,2.70
2023-04-15T02:00:59.606Z,2.40
2023-04-15T02:01:59.583Z,2.60
2023-04-15T02:02:59.590Z,2.40
2023-04-15T02:03:59.602Z,2.40
2023-04-15T02:04:59.528Z,2.30
2023-04-15T02:05:59.509Z,2.30
2023-04-15T02:06:59.488Z,2.40
2023-04-15T02:07:59.482Z,2.70
2023-04-15T02:08:59.698Z,2.40
2023-04-15T02:09:59.474Z,2.10
2023-04-15T02:10:59.432Z,2.20
2023-04-15T02:11:59.436Z,2.30
2023-04-15T02:12:59.440Z,2.10
2023-04-15T02:13:59.407Z,2.40
2023-04-15T02:14:59.690Z,2.40
2023-04-15T02:15:59.395Z,2.10
2023-04-15T02:16:59.483Z,2.10
2023-04-15T02:17:59.398Z,2.50
2023-04-15T02:18:59.548Z,2.80
2023-04-15T02:19:59.323Z,2.60
2023-04-15T02:20:59.366Z,2.10
2023-04-15T02:21:59.296Z,2.20
2023-04-15T02:22:59.321Z,2.20
2023-04-15T02:23:59.295Z,2.50
2023-04-15T02:24:59.254Z,2.30
2023-04-15T02:25:59.259Z,2.30
2023-04-15T02:26:59.226Z,2.20
2023-04-15T02:27:59.233Z,2.20
2023-04-15T02:28:59.418Z,2.20
2023-04-15T02:29:59.214Z,2.30
2023-04-15T02:30:59.223Z,2.60
2023-04-15T02:31:59.207Z,2.00
2023-04-15T02:32:59.195Z,2.30
2023-04-15T02:33:59.147Z,2.20
2023-04-15T02:34:59.120Z,2.20
2023-04-15T02:35:59.135Z,2.10
2023-04-15T02:36:59.101Z,2.10
2023-04-15T02:37:59.088Z,2.00
2023-04-15T02:38:59.136Z,2.00
2023-04-15T02:39:59.076Z,1.90
2023-04-15T02:40:59.063Z,2.30
2023-04-15T02:41:59.049Z,2.30
2023-04-15T02:42:59.032Z,2.40
2023-04-15T02:43:59.010Z,1.90
2023-04-15T02:44:58.997Z,2.00
2023-04-15T02:45:59.020Z,2.00
2023-04-15T02:46:58.981Z,2.20
2023-04-15T02:47:59.068Z,2.30
2023-04-15T02:48:59.116Z,2.40
2023-04-15T02:49:58.974Z,2.20
2023-04-15T02:50:58.927Z,2.30
2023-04-15T02:51:58.937Z,2.30
2023-04-15T02:52:58.897Z,1.90
2023-04-15T02:53:58.878Z,2.10
2023-04-15T02:54:58.889Z,1.90
2023-04-15T02:55:58.884Z,2.00
2023-04-15T02:56:58.847Z,2.20
2023-04-15T02:57:58.836Z,2.50
2023-04-15T02:58:58.896Z,2.00
2023-04-15T02:59:58.840Z,1.80
2023-04-15T03:00:58.825Z,2.10
2023-04-15T03:01:58.818Z,2.00
2023-04-15T03:02:58.996Z,1.90
2023-04-15T03:03:58.814Z,1.70
2023-04-15T03:04:58.745Z,2.10
2023-04-15T03:05:58.735Z,2.30
2023-04-15T03:06:58.747Z,2.20
2023-04-15T03:07:58.715Z,2.40
2023-04-15T03:08:58.816Z,2.40
2023-04-15T03:09:58.670Z,1.70
2023-04-15T03:10:58.667Z,2.00
2023-04-15T03:11:58.658Z,2.10
2023-04-15T03:12:58.649Z,2.10
2023-04-15T03:13:58.630Z,1.90
2023-04-15T03:14:58.608Z,2.10
2023-04-15T03:15:58.652Z,2.00
2023-04-15T03:16:58.577Z,2.30
2023-04-15T03:17:58.600Z,2.00
2023-04-15T03:18:58.700Z,2.30
2023-04-15T03:19:58.606Z,2.30
2023-04-15T03:20:58.558Z,1.80
2023-04-15T03:21:58.524Z,1.80
2023-04-15T03:22:58.514Z,2.20
2023-04-15T03:23:58.568Z,2.00
2023-04-15T03:24:58.490Z,2.20
2023-04-15T03:25:58.503Z,2.00
2023-04-15T03:26:58.454Z,2.00
2023-04-15T03:27:58.447Z,1.60
2023-04-15T03:28:58.482Z,1.90
2023-04-15T03:29:58.429Z,1.90
2023-04-15T03:30:58.449Z,1.90
2023-04-15T03:31:58.408Z,1.90
2023-04-15T03:32:58.471Z,1.90
2023-04-15T03:33:58.380Z,2.10
2023-04-15T03:34:58.362Z,1.90
2023-04-15T03:35:58.343Z,1.80
2023-04-15T03:36:58.333Z,1.90
2023-04-15T03:37:58.352Z,2.10
2023-04-15T03:38:58.453Z,1.90
2023-04-15T03:39:58.298Z,1.90
2023-04-15T03:40:58.300Z,1.70
2023-04-15T03:41:58.260Z,1.90
2023-04-15T03:42:58.262Z,1.70
2023-04-15T03:43:58.242Z,2.00
2023-04-15T03:44:58.221Z,1.80
2023-04-15T03:45:59.731Z,1.90
2023-04-15T03:46:58.204Z,1.90
2023-04-15T03:48:07.282Z,2.20
2023-04-15T03:48:58.222Z,1.90
2023-04-15T03:49:58.165Z,2.00
2023-04-15T03:50:58.143Z,1.80
2023-04-15T03:51:58.153Z,1.90
2023-04-15T03:52:58.125Z,2.00
2023-04-15T03:53:58.109Z,1.80
2023-04-15T03:54:58.107Z,1.90
2023-04-15T03:55:58.083Z,1.90
2023-04-15T03:56:58.069Z,1.90
2023-04-15T03:57:58.087Z,1.90
2023-04-15T03:58:58.078Z,1.80
2023-04-15T03:59:58.070Z,2.00
2023-04-15T04:00:58.033Z,1.80
2023-04-15T04:01:58.114Z,1.60
2023-04-15T04:02:58.228Z,1.80
2023-04-15T04:03:58.099Z,1.60
2023-04-15T04:04:57.980Z,1.90
2023-04-15T04:05:57.951Z,1.70
2023-04-15T04:06:57.993Z,1.80
2023-04-15T04:07:57.948Z,2.00
2023-04-15T04:08:57.928Z,1.60
2023-04-15T04:09:57.923Z,1.80
2023-04-15T04:10:57.893Z,1.90
2023-04-15T04:11:57.897Z,1.90
2023-04-15T04:12:57.879Z,2.00
2023-04-15T04:13:57.866Z,1.80
2023-04-15T04:14:57.841Z,1.80
2023-04-15T04:15:57.913Z,1.90
2023-04-15T04:16:57.863Z,2.50
2023-04-15T04:17:57.911Z,1.90
2023-04-15T04:18:57.802Z,2.20
2023-04-15T04:19:57.773Z,2.10
2023-04-15T04:20:57.759Z,1.80
2023-04-15T04:21:57.757Z,1.80
2023-04-15T04:22:57.728Z,2.00
2023-04-15T04:23:57.733Z,1.70
2023-04-15T04:24:57.720Z,2.10
2023-04-15T04:25:57.716Z,1.90
2023-04-15T04:26:57.712Z,1.60
2023-04-15T04:27:57.691Z,1.80
2023-04-15T04:28:57.680Z,1.70
2023-04-15T04:29:57.659Z,1.70
2023-04-15T04:30:57.640Z,1.70
2023-04-15T04:31:57.674Z,2.00
2023-04-15T04:32:57.628Z,1.50
2023-04-15T04:33:57.617Z,1.80
2023-04-15T04:34:57.585Z,1.50
2023-04-15T04:35:57.569Z,1.90
2023-04-15T04:36:57.551Z,1.80
2023-04-15T04:37:57.547Z,1.60
2023-04-15T04:38:57.546Z,2.00
2023-04-15T04:39:57.523Z,1.70
2023-04-15T04:40:57.518Z,1.80
2023-04-15T04:41:57.516Z,1.90
2023-04-15T04:42:57.474Z,2.00
2023-04-15T04:43:57.488Z,1.80
2023-04-15T04:44:57.482Z,2.20
2023-04-15T04:45:57.523Z,1.80
2023-04-15T04:46:57.422Z,1.90
2023-04-15T04:47:57.465Z,1.50
2023-04-15T04:48:57.421Z,1.90
2023-04-15T04:49:57.391Z,1.50
2023-04-15T04:50:57.367Z,1.50
2023-04-15T04:51:57.376Z,1.80
2023-04-15T04:52:57.343Z,2.00
2023-04-15T04:53:57.330Z,1.60
2023-04-15T04:54:57.328Z,2.10
2023-04-15T04:55:57.305Z,1.60
2023-04-15T04:56:57.301Z,1.60
2023-04-15T04:57:57.281Z,1.50
2023-04-15T04:58:57.285Z,1.70
2023-04-15T04:59:57.260Z,1.90
2023-04-15T05:00:57.279Z,1.50
2023-04-15T05:01:57.291Z,1.80
2023-04-15T05:02:57.310Z,1.40
2023-04-15T05:03:57.315Z,1.60
2023-04-15T05:04:57.212Z,1.50
2023-04-15T05:05:57.180Z,1.80
2023-04-15T05:06:57.188Z,1.90
2023-04-15T05:07:57.181Z,1.60
2023-04-15T05:08:57.144Z,1.50
2023-04-15T05:09:57.136Z,1.60
2023-04-15T05:10:57.132Z,1.40
2023-04-15T05:11:57.117Z,1.60
2023-04-15T05:12:57.113Z,1.70
2023-04-15T05:13:57.076Z,1.70
2023-04-15T05:14:57.072Z,1.70
2023-04-15T05:15:57.130Z,1.80
2023-04-15T05:16:57.055Z,1.90
2023-04-15T05:17:57.124Z,1.80
2023-04-15T05:18:57.018Z,1.40
2023-04-15T05:19:57.001Z,1.40
2023-04-15T05:20:57.007Z,1.60
2023-04-15T05:21:56.976Z,1.40
2023-04-15T05:22:56.970Z,1.60
2023-04-15T05:23:56.957Z,1.40
2023-04-15T05:24:56.960Z,1.60
2023-04-15T05:25:56.925Z,1.40
2023-04-15T05:26:56.930Z,1.30
2023-04-15T05:27:56.889Z,1.60
2023-04-15T05:28:56.884Z,1.30
2023-04-15T05:29:56.892Z,1.40
2023-04-15T05:30:56.894Z,1.50
2023-04-15T05:31:56.878Z,1.50
2023-04-15T05:32:56.911Z,1.70
2023-04-15T05:33:56.815Z,1.40
2023-04-15T05:34:56.805Z,1.30
2023-04-15T05:35:56.820Z,1.30
2023-04-15T05:36:56.786Z,1.60
2023-04-15T05:37:56.780Z,1.40
2023-04-15T05:38:56.773Z,1.60
2023-04-15T05:39:56.763Z,1.40
2023-04-15T05:40:56.746Z,1.60
2023-04-15T05:41:56.714Z,1.40
2023-04-15T05:42:56.710Z,1.50
2023-04-15T05:43:56.682Z,1.40
2023-04-15T05:44:56.691Z,1.40
2023-04-15T05:45:56.699Z,1.40
2023-04-15T05:46:56.687Z,1.40
2023-04-15T05:47:56.714Z,1.40
2023-04-15T05:48:56.869Z,1.40
2023-04-15T05:49:56.617Z,1.70
2023-04-15T05:50:56.600Z,1.40
2023-04-15T05:51:56.616Z,1.30
2023-04-15T05:52:56.565Z,1.50
2023-04-15T05:53:56.574Z,1.30
2023-04-15T05:54:56.555Z,1.40
2023-04-15T05:55:56.534Z,1.00
2023-04-15T05:56:56.543Z,1.20
2023-04-15T05:57:56.504Z,1.30
2023-04-15T05:58:56.500Z,1.40
2023-04-15T05:59:56.486Z,1.10
2023-04-15T06:00:56.468Z,1.40
2023-04-15T06:01:56.538Z,1.30
2023-04-15T06:02:56.521Z,1.30
2023-04-15T06:03:56.569Z,1.20
2023-04-15T06:04:56.441Z,1.50
2023-04-15T06:05:56.404Z,1.20
2023-04-15T06:06:56.420Z,1.20
2023-04-15T06:07:56.378Z,1.20
2023-04-15T06:08:56.385Z,1.40
2023-04-15T06:09:56.346Z,1.50
2023-04-15T06:10:56.350Z,1.10
2023-04-15T06:11:56.343Z,1.10
2023-04-15T06:12:56.335Z,1.40
2023-04-15T06:13:56.298Z,1.20
2023-04-15T06:14:56.870Z,1.30
2023-04-15T06:15:56.304Z,1.50
2023-04-15T06:16:56.284Z,1.10
2023-04-15T06:17:56.306Z,1.20
2023-04-15T06:18:56.248Z,1.20
2023-04-15T06:19:56.230Z,1.30
2023-04-15T06:20:56.208Z,0.90
2023-04-15T06:21:56.241Z,1.30
2023-04-15T06:22:56.177Z,1.30
2023-04-15T06:23:56.165Z,1.10
2023-04-15T06:24:56.165Z,1.30
2023-04-15T06:25:56.128Z,1.20
2023-04-15T06:26:56.122Z,1.00
2023-04-15T06:27:56.140Z,1.40
2023-04-15T06:28:56.117Z,1.30
2023-04-15T06:29:56.080Z,1.30
2023-04-15T06:30:56.080Z,1.10
2023-04-15T06:31:56.078Z,1.10
2023-04-15T06:32:56.105Z,1.40
2023-04-15T06:33:56.032Z,1.20
2023-04-15T06:34:56.016Z,1.40
2023-04-15T06:35:56.002Z,1.10
2023-04-15T06:36:56.002Z,1.10
2023-04-15T06:37:55.999Z,1.00
2023-04-15T06:38:55.965Z,0.90
2023-04-15T06:39:55.950Z,1.10
2023-04-15T06:40:55.937Z,1.20
2023-04-15T06:41:55.924Z,1.20
2023-04-15T06:42:55.924Z,1.10
2023-04-15T06:43:55.916Z,1.20
2023-04-15T06:44:55.894Z,1.70
2023-04-15T06:45:55.947Z,0.90
2023-04-15T06:46:55.872Z,1.00
2023-04-15T06:47:55.882Z,1.20
2023-04-15T06:48:55.838Z,1.20
2023-04-15T06:49:55.833Z,0.80
2023-04-15T06:50:55.819Z,1.00
2023-04-15T06:51:55.812Z,1.00
2023-04-15T06:52:55.814Z,1.00
2023-04-15T06:53:55.771Z,1.10
2023-04-15T06:54:55.754Z,1.10
2023-04-15T06:55:55.749Z,1.00
2023-04-15T06:56:55.732Z,1.20
2023-04-15T06:57:55.746Z,1.20
2023-04-15T06:58:55.710Z,1.00
2023-04-15T06:59:55.695Z,1.00
2023-04-15T07:00:55.729Z,1.20
2023-04-15T07:01:55.699Z,1.30
2023-04-15T07:02:55.753Z,0.90
2023-04-15T07:03:55.715Z,0.80
2023-04-15T07:04:55.637Z,1.10
2023-04-15T07:05:55.615Z,1.20
2023-04-15T07:06:55.633Z,1.10
2023-04-15T07:07:55.587Z,1.10
2023-04-15T07:08:55.598Z,1.30
2023-04-15T07:09:55.563Z,1.20
2023-04-15T07:10:55.562Z,1.00
2023-04-15T07:11:55.530Z,1.30
2023-04-15T07:12:55.527Z,1.10
2023-04-15T07:13:55.527Z,1.20
2023-04-15T07:14:55.516Z,1.30
2023-04-15T07:15:55.483Z,1.30
2023-04-15T07:16:55.514Z,0.90
2023-04-15T07:17:55.502Z,1.10
2023-04-15T07:18:55.489Z,1.00
2023-04-15T07:19:55.447Z,1.10
2023-04-15T07:20:55.426Z,1.10
2023-04-15T07:21:55.421Z,1.00
2023-04-15T07:22:55.392Z,0.80
2023-04-15T07:23:55.439Z,1.30
2023-04-15T07:24:55.370Z,1.20
2023-04-15T07:25:55.363Z,1.20
2023-04-15T07:26:55.350Z,1.00
2023-04-15T07:27:55.334Z,1.00
2023-04-15T07:28:55.335Z,1.10
2023-04-15T07:29:55.305Z,1.00
2023-04-15T07:30:55.310Z,1.20
2023-04-15T07:31:55.285Z,1.30
2023-04-15T07:32:55.325Z,1.20
2023-04-15T07:33:55.257Z,1.00
2023-04-15T07:34:55.250Z,1.00
2023-04-15T07:35:55.221Z,1.00
2023-04-15T07:36:55.217Z,1.00
2023-04-15T07:37:55.196Z,0.90
2023-04-15T07:38:55.216Z,1.60
2023-04-15T07:39:55.186Z,1.00
2023-04-15T07:40:55.156Z,1.20
2023-04-15T07:41:55.165Z,1.20
2023-04-15T07:42:55.145Z,1.40
2023-04-15T07:43:55.132Z,1.20
2023-04-15T07:44:55.123Z,1.00
2023-04-15T07:45:55.140Z,1.20
2023-04-15T07:46:55.080Z,1.00
2023-04-15T07:47:55.173Z,1.10
2023-04-15T07:48:55.060Z,1.30
2023-04-15T07:49:55.061Z,1.00
2023-04-15T07:50:55.048Z,1.00
2023-04-15T07:51:55.108Z,1.20
2023-04-15T07:52:55.008Z,0.80
2023-04-15T07:53:55.013Z,1.00
2023-04-15T07:54:55.008Z,1.00
2023-04-15T07:55:54.973Z,1.30
2023-04-15T07:56:54.979Z,0.90
2023-04-15T07:57:54.958Z,1.30
2023-04-15T07:58:54.933Z,1.00
2023-04-15T07:59:54.929Z,1.10
2023-04-15T08:00:54.905Z,0.90
2023-04-15T08:01:54.904Z,1.00
2023-04-15T08:02:54.996Z,1.20
2023-04-15T08:03:55.001Z,1.20
2023-04-15T08:04:54.905Z,1.70
2023-04-15T08:05:54.848Z,1.80
2023-04-15T08:06:55.273Z,1.20
2023-04-15T08:07:54.818Z,1.20
2023-04-15T08:08:54.825Z,1.00
2023-04-15T08:09:54.807Z,1.40
2023-04-15T08:10:54.804Z,1.10
2023-04-15T08:11:54.772Z,1.30
2023-04-15T08:12:54.819Z,1.50
2023-04-15T08:13:54.755Z,1.20
2023-04-15T08:14:54.764Z,1.00
2023-04-15T08:15:54.726Z,1.00
2023-04-15T08:16:54.726Z,1.00
2023-04-15T08:17:54.760Z,1.00
2023-04-15T08:18:54.701Z,1.00
2023-04-15T08:19:54.676Z,1.00
2023-04-15T08:20:54.718Z,1.10
2023-04-15T08:21:54.715Z,1.20
2023-04-15T08:22:54.694Z,1.30
2023-04-15T08:23:54.627Z,1.20
2023-04-15T08:24:54.601Z,1.00
2023-04-15T08:25:54.595Z,0.90
2023-04-15T08:26:54.569Z,0.90
2023-04-15T08:27:54.560Z,1.20
2023-04-15T08:28:54.553Z,1.10
2023-04-15T08:29:54.530Z,0.90
2023-04-15T08:30:54.548Z,1.40
2023-04-15T08:31:54.581Z,1.00
2023-04-15T08:32:54.548Z,1.20
2023-04-15T08:33:54.500Z,1.40
2023-04-15T08:34:54.468Z,1.20
2023-04-15T08:35:54.491Z,1.30
2023-04-15T08:36:54.465Z,1.20
2023-04-15T08:37:54.463Z,1.50
2023-04-15T08:38:54.430Z,1.40
2023-04-15T08:39:54.409Z,1.20
2023-04-15T08:40:54.406Z,1.30
2023-04-15T08:41:54.397Z,1.40
2023-04-15T08:42:54.396Z,1.60
2023-04-15T08:43:54.369Z,1.30
2023-04-15T08:44:54.365Z,1.00
2023-04-15T08:45:54.338Z,1.30
2023-04-15T08:46:54.363Z,1.40
2023-04-15T08:47:54.375Z,1.50
2023-04-15T08:48:54.301Z,1.70
2023-04-15T08:49:54.285Z,1.20
2023-04-15T08:50:54.291Z,1.30
2023-04-15T08:51:54.264Z,1.80
2023-04-15T08:52:54.256Z,1.50
2023-04-15T08:53:54.232Z,1.50
2023-04-15T08:54:54.222Z,1.40
2023-04-15T08:55:54.219Z,1.40
2023-04-15T08:56:54.232Z,1.40
2023-04-15T08:57:54.179Z,1.50
2023-04-15T08:58:54.187Z,1.30
2023-04-15T08:59:54.157Z,1.30
2023-04-15T09:00:54.214Z,1.30
2023-04-15T09:01:54.202Z,1.30
2023-04-15T09:02:54.189Z,1.30
2023-04-15T09:03:54.176Z,1.60
2023-04-15T09:04:54.109Z,1.20
2023-04-15T09:05:54.081Z,1.40
2023-04-15T09:06:54.095Z,1.30
2023-04-15T09:07:54.109Z,1.50
2023-04-15T09:08:54.156Z,1.70
2023-04-15T09:09:54.042Z,1.50
2023-04-15T09:10:54.008Z,1.70
2023-04-15T09:11:54.049Z,1.70
2023-04-15T09:12:53.991Z,1.60
2023-04-15T09:13:53.993Z,1.70
2023-04-15T09:14:53.991Z,1.80
2023-04-15T09:15:54.057Z,1.60
2023-04-15T09:16:54.075Z,1.60
2023-04-15T09:17:53.999Z,1.50
2023-04-15T09:18:53.911Z,1.60
2023-04-15T09:19:53.931Z,1.80
2023-04-15T09:20:53.883Z,1.90
2023-04-15T09:21:55.521Z,1.80
2023-04-15T09:22:53.858Z,1.50
2023-04-15T09:23:53.872Z,2.00
2023-04-15T09:24:53.862Z,1.90
2023-04-15T09:25:53.819Z,2.00
2023-04-15T09:26:53.806Z,1.70
2023-04-15T09:27:53.812Z,2.10
2023-04-15T09:28:53.773Z,2.30
2023-04-15T09:29:53.766Z,1.90
2023-04-15T09:30:53.789Z,2.00
2023-04-15T09:31:53.745Z,1.90
2023-04-15T09:32:53.821Z,1.90
2023-04-15T09:33:53.719Z,1.90
2023-04-15T09:34:53.707Z,1.90
2023-04-15T09:35:53.707Z,2.20
2023-04-15T09:36:53.709Z,1.60
2023-04-15T09:37:53.682Z,1.90
2023-04-15T09:38:53.688Z,1.90
2023-04-15T09:39:53.635Z,1.70
2023-04-15T09:40:53.644Z,1.90
2023-04-15T09:41:53.620Z,1.70
2023-04-15T09:42:53.608Z,1.80
2023-04-15T09:43:53.591Z,1.90
2023-04-15T09:44:53.587Z,1.90
2023-04-15T09:45:53.640Z,2.10
2023-04-15T09:46:53.615Z,2.00
2023-04-15T09:47:53.568Z,2.00
2023-04-15T09:48:53.524Z,2.20
2023-04-15T09:49:53.583Z,2.00
2023-04-15T09:50:53.510Z,2.00
2023-04-15T09:52:04.579Z,1.90
2023-04-15T09:52:53.486Z,2.40
2023-04-15T09:53:53.468Z,1.70
2023-04-15T09:54:53.453Z,2.10
2023-04-15T09:55:53.438Z,2.40
2023-04-15T09:56:53.439Z,2.40
2023-04-15T09:57:53.406Z,2.20
2023-04-15T09:58:53.404Z,2.20
2023-04-15T09:59:53.473Z,2.40
2023-04-15T10:00:53.384Z,2.10
2023-04-15T10:01:53.505Z,2.10
2023-04-15T10:02:53.513Z,2.20
2023-04-15T10:03:53.405Z,2.10
2023-04-15T10:04:53.348Z,1.90
2023-04-15T10:05:53.310Z,2.00
2023-04-15T10:06:53.308Z,2.00
2023-04-15T10:07:53.285Z,2.30
2023-04-15T10:08:53.271Z,2.30
2023-04-15T10:09:53.268Z,1.90
2023-04-15T10:10:53.277Z,2.40
2023-04-15T10:11:53.243Z,2.00
2023-04-15T10:12:53.208Z,1.90
2023-04-15T10:13:53.211Z,2.40
2023-04-15T10:14:53.195Z,2.00
2023-04-15T10:15:53.211Z,2.30
2023-04-15T10:16:53.184Z,2.30
2023-04-15T10:17:53.230Z,2.20
2023-04-15T10:18:53.169Z,2.00
2023-04-15T10:19:53.143Z,2.30
2023-04-15T10:20:53.120Z,2.60
2023-04-15T10:21:53.118Z,1.90
2023-04-15T10:22:53.097Z,2.20
2023-04-15T10:23:53.100Z,2.50
2023-04-15T10:24:53.101Z,3.00
2023-04-15T10:25:53.075Z,2.50
2023-04-15T10:26:53.047Z,2.30
2023-04-15T10:27:53.616Z,2.50
2023-04-15T10:28:53.034Z,2.80
2023-04-15T10:29:53.029Z,2.80
2023-04-15T10:30:53.013Z,2.50
2023-04-15T10:31:53.040Z,2.30
2023-04-15T10:32:53.020Z,2.50
2023-04-15T10:33:52.947Z,2.70
2023-04-15T10:34:54.456Z,2.80
2023-04-15T10:35:52.939Z,2.80
2023-04-15T10:36:52.908Z,2.70
2023-04-15T10:37:52.906Z,2.80
2023-04-15T10:38:52.886Z,2.60
2023-04-15T10:39:52.877Z,2.60
2023-04-15T10:40:52.886Z,2.70
2023-04-15T10:41:52.866Z,3.00
2023-04-15T10:42:52.904Z,2.90
2023-04-15T10:43:52.893Z,3.00
2023-04-15T10:44:52.830Z,3.30
2023-04-15T10:45:52.856Z,3.10
2023-04-15T10:46:52.849Z,3.40
2023-04-15T10:47:52.862Z,3.00
2023-04-15T10:48:52.786Z,2.80
2023-04-15T10:49:52.787Z,3.00
2023-04-15T10:50:52.735Z,3.20
2023-04-15T10:51:52.749Z,2.90
2023-04-15T10:52:52.749Z,3.30
2023-04-15T10:53:52.701Z,2.60
2023-04-15T10:54:52.699Z,2.90
2023-04-15T10:55:52.670Z,3.30
2023-04-15T10:56:52.662Z,3.40
2023-04-15T10:57:52.658Z,3.00
2023-04-15T10:58:52.677Z,3.50
2023-04-15T10:59:52.637Z,3.00
2023-04-15T11:00:52.630Z,3.10
2023-04-15T11:01:52.916Z,2.90
2023-04-15T11:02:52.769Z,3.00
2023-04-15T11:03:52.860Z,2.70
2023-04-15T11:04:52.616Z,3.30
2023-04-15T11:05:52.551Z,2.50
2023-04-15T11:06:52.530Z,2.90
2023-04-15T11:07:52.530Z,3.30
2023-04-15T11:08:52.506Z,2.70
2023-04-15T11:09:52.499Z,3.00
2023-04-15T11:10:52.502Z,2.80
2023-04-15T11:11:52.459Z,2.90
2023-04-15T11:12:52.449Z,2.90
2023-04-15T11:13:52.482Z,2.70
2023-04-15T11:14:52.418Z,3.10
2023-04-15T11:15:52.429Z,3.30
2023-04-15T11:16:52.452Z,3.10
2023-04-15T11:17:52.482Z,3.00
2023-04-15T11:18:52.369Z,3.10
2023-04-15T11:19:52.367Z,3.20
2023-04-15T11:20:52.363Z,3.00
2023-04-15T11:21:52.334Z,3.70
2023-04-15T11:22:52.341Z,3.30
2023-04-15T11:23:52.312Z,2.70
2023-04-15T11:24:52.297Z,2.90
2023-04-15T11:25:52.315Z,2.60
2023-04-15T11:26:52.292Z,3.10
2023-04-15T11:27:52.268Z,3.00
2023-04-15T11:28:52.274Z,2.80
2023-04-15T11:29:52.232Z,3.00
2023-04-15T11:30:52.239Z,3.00
2023-04-15T11:31:52.265Z,3.50
2023-04-15T11:32:52.241Z,3.00
2023-04-15T11:33:52.214Z,2.80
2023-04-15T11:34:52.168Z,2.70
2023-04-15T11:35:52.175Z,3.40
2023-04-15T11:36:52.147Z,2.80
2023-04-15T11:37:52.140Z,2.80
2023-04-15T11:38:52.122Z,2.70
2023-04-15T11:39:52.116Z,2.80
2023-04-15T11:40:52.119Z,3.00
2023-04-15T11:41:52.129Z,2.70
2023-04-15T11:42:52.081Z,3.20
2023-04-15T11:43:52.059Z,2.70
2023-04-15T11:44:52.074Z,2.80
2023-04-15T11:45:52.063Z,2.50
2023-04-15T11:46:52.053Z,2.90
2023-04-15T11:47:52.104Z,2.80
2023-04-15T11:48:51.993Z,2.40
2023-04-15T11:49:51.993Z,2.90
2023-04-15T11:50:51.999Z,2.60
2023-04-15T11:51:51.976Z,2.90
2023-04-15T11:52:51.959Z,2.70
2023-04-15T11:53:52.080Z,2.70
2023-04-15T11:54:51.950Z,2.60
2023-04-15T11:55:51.927Z,2.80
2023-04-15T11:56:51.913Z,2.70
2023-04-15T11:57:51.920Z,2.60
2023-04-15T11:58:51.903Z,3.10
2023-04-15T11:59:51.859Z,2.90
2023-04-15T12:00:51.851Z,2.90
2023-04-15T12:01:51.870Z,2.80
2023-04-15T12:02:51.965Z,3.00
2023-04-15T12:03:51.970Z,2.70
2023-04-15T12:04:51.900Z,3.10
2023-04-15T12:05:51.802Z,3.00
2023-04-15T12:06:51.793Z,3.30
2023-04-15T12:07:51.759Z,2.80
2023-04-15T12:08:51.754Z,2.90
2023-04-15T12:09:51.731Z,2.90
2023-04-15T12:10:51.720Z,3.00
2023-04-15T12:11:51.754Z,3.00
2023-04-15T12:12:51.697Z,3.30
2023-04-15T12:13:51.685Z,3.00
2023-04-15T12:14:51.671Z,2.80
2023-04-15T12:15:51.690Z,3.10
2023-04-15T12:16:52.479Z,3.00
2023-04-15T12:17:52.346Z,3.00
2023-04-15T12:18:51.636Z,3.50
2023-04-15T12:19:51.605Z,3.10
2023-04-15T12:20:51.597Z,3.00
2023-04-15T12:21:51.606Z,3.50
2023-04-15T12:22:51.591Z,3.70
2023-04-15T12:23:51.575Z,3.40
2023-04-15T12:24:51.564Z,3.40
2023-04-15T12:25:51.536Z,3.50
2023-04-15T12:26:51.545Z,3.40
2023-04-15T12:27:51.523Z,3.40
2023-04-15T12:28:51.554Z,3.70
2023-04-15T12:29:51.485Z,3.50
2023-04-15T12:30:51.471Z,3.60
2023-04-15T12:31:51.464Z,3.40
2023-04-15T12:32:51.498Z,3.70
2023-04-15T12:33:51.442Z,3.00
2023-04-15T12:34:51.437Z,3.50
2023-04-15T12:35:51.416Z,3.30
2023-04-15T12:36:51.445Z,3.40
2023-04-15T12:37:51.425Z,3.50
2023-04-15T12:38:51.387Z,3.00
2023-04-15T12:39:51.386Z,3.20
2023-04-15T12:40:51.351Z,2.90
2023-04-15T12:41:51.352Z,3.10
2023-04-15T12:42:51.335Z,2.90
2023-04-15T12:43:51.321Z,3.10
2023-04-15T12:44:51.308Z,3.40
2023-04-15T12:45:51.291Z,3.20
2023-04-15T12:46:51.317Z,3.00
2023-04-15T12:47:51.347Z,3.20
2023-04-15T12:48:51.355Z,2.90
2023-04-15T12:49:51.239Z,3.00
2023-04-15T12:50:51.228Z,3.40
2023-04-15T12:51:51.239Z,2.70
2023-04-15T12:52:51.223Z,3.20
2023-04-15T12:53:51.202Z,2.80
2023-04-15T12:54:51.182Z,2.80
2023-04-15T12:55:51.174Z,2.40
2023-04-15T12:56:51.190Z,2.30
2023-04-15T12:57:51.156Z,2.60
2023-04-15T12:58:51.138Z,2.10
2023-04-15T12:59:51.144Z,2.00
2023-04-15T13:00:51.104Z,2.40
2023-04-15T13:01:51.180Z,2.10
2023-04-15T13:02:51.232Z,2.60
2023-04-15T13:03:51.289Z,2.40
2023-04-15T13:04:51.124Z,2.60
2023-04-15T13:05:51.051Z,1.90
2023-04-15T13:06:51.022Z,1.90
2023-04-15T13:07:51.031Z,2.90
2023-04-15T13:08:58.439Z,2.00
2023-04-15T13:09:51.002Z,2.40
2023-04-15T13:10:50.973Z,3.60
2023-04-15T13:11:50.996Z,2.00
2023-04-15T13:12:50.958Z,2.10
2023-04-15T13:13:50.935Z,1.60
2023-04-15T13:14:50.919Z,2.00
2023-04-15T13:15:51.016Z,1.80
2023-04-15T13:16:50.901Z,1.90
2023-04-15T13:17:50.944Z,1.70